sensor_id;sensor_type;location;lat;lon;timestamp;temperature;humidity
47813;DHT22;34221;45.296;9.516;2023-07-09T06:55:10;26.40;77.90
47813;DHT22;34221;45.296;9.516;2023-07-09T06:55:25;25.80;77.80
47813;DHT22;34221;45.296;9.516;2023-07-09T06:55:40;25.80;78.00
47813;DHT22;34221;45.296;9.516;2023-07-09T06:55:57;25.70;77.90
47813;DHT22;34221;45.296;9.516;2023-07-09T06:56:16;25.80;77.90
47813;DHT22;34221;45.296;9.516;2023-07-09T06:56:31;25.80;77.90
47813;DHT22;34221;45.296;9.516;2023-07-09T06:56:46;25.80;78.00
47813;DHT22;34221;45.296;9.516;2023-07-09T06:57:02;25.80;78.00
47813;DHT22;34221;45.296;9.516;2023-07-09T06:57:17;25.80;78.00
47813;DHT22;34221;45.296;9.516;2023-07-09T06:57:32;25.80;78.00
47813;DHT22;34221;45.296;9.516;2023-07-09T06:57:46;25.80;77.80
47813;DHT22;34221;45.296;9.516;2023-07-09T06:58:01;25.80;77.70
47813;DHT22;34221;45.296;9.516;2023-07-09T06:58:17;25.80;76.60
47813;DHT22;34221;45.296;9.516;2023-07-09T06:58:33;25.80;76.40
47813;DHT22;34221;45.296;9.516;2023-07-09T06:58:48;25.80;76.60
47813;DHT22;34221;45.296;9.516;2023-07-09T06:59:03;25.80;76.60
47813;DHT22;34221;45.296;9.516;2023-07-09T06:59:18;25.80;76.50
47813;DHT22;34221;45.296;9.516;2023-07-09T06:59:33;25.80;76.60
47813;DHT22;34221;45.296;9.516;2023-07-09T06:59:48;25.80;76.50
47813;DHT22;34221;45.296;9.516;2023-07-09T07:00:03;25.80;76.50
47813;DHT22;34221;45.296;9.516;2023-07-09T07:00:19;25.80;76.40
47813;DHT22;34221;45.296;9.516;2023-07-09T07:00:35;25.80;76.40
47813;DHT22;34221;45.296;9.516;2023-07-09T07:00:51;25.90;76.20
47813;DHT22;34221;45.296;9.516;2023-07-09T07:01:06;25.90;76.10
47813;DHT22;34221;45.296;9.516;2023-07-09T07:01:21;25.90;75.90
47813;DHT22;34221;45.296;9.516;2023-07-09T07:01:36;25.90;75.80
47813;DHT22;34221;45.296;9.516;2023-07-09T07:01:51;25.90;75.60
47813;DHT22;34221;45.296;9.516;2023-07-09T07:02:07;25.90;75.30
47813;DHT22;34221;45.296;9.516;2023-07-09T07:02:22;26.00;75.50
47813;DHT22;34221;45.296;9.516;2023-07-09T07:02:37;26.00;75.60
47813;DHT22;34221;45.296;9.516;2023-07-09T07:02:52;25.90;75.50
47813;DHT22;34221;45.296;9.516;2023-07-09T07:03:09;26.00;75.20
47813;DHT22;34221;45.296;9.516;2023-07-09T07:03:24;26.00;75.30
47813;DHT22;34221;45.296;9.516;2023-07-09T07:03:39;26.00;75.20
47813;DHT22;34221;45.296;9.516;2023-07-09T07:03:54;26.00;75.50
47813;DHT22;34221;45.296;9.516;2023-07-09T07:04:09;26.00;75.40
47813;DHT22;34221;45.296;9.516;2023-07-09T07:04:26;26.00;75.30
47813;DHT22;34221;45.296;9.516;2023-07-09T07:04:41;26.00;75.20
47813;DHT22;34221;45.296;9.516;2023-07-09T07:04:56;26.00;75.10
47813;DHT22;34221;45.296;9.516;2023-07-09T07:05:11;26.10;75.10
47813;DHT22;34221;45.296;9.516;2023-07-09T07:05:26;26.10;75.00
47813;DHT22;34221;45.296;9.516;2023-07-09T07:05:45;26.10;75.10
47813;DHT22;34221;45.296;9.516;2023-07-09T07:06:01;26.10;75.10
47813;DHT22;34221;45.296;9.516;2023-07-09T07:06:16;26.10;75.10
47813;DHT22;34221;45.296;9.516;2023-07-09T07:06:31;26.10;75.10
47813;DHT22;34221;45.296;9.516;2023-07-09T07:06:46;26.20;75.20
47813;DHT22;34221;45.296;9.516;2023-07-09T07:07:01;26.20;75.20
47813;DHT22;34221;45.296;9.516;2023-07-09T07:07:17;26.20;75.20
47813;DHT22;34221;45.296;9.516;2023-07-09T07:07:32;26.20;75.20
47813;DHT22;34221;45.296;9.516;2023-07-09T07:07:47;26.20;75.30
47813;DHT22;34221;45.296;9.516;2023-07-09T07:08:03;26.20;75.30
47813;DHT22;34221;45.296;9.516;2023-07-09T07:08:19;26.20;75.20
47813;DHT22;34221;45.296;9.516;2023-07-09T07:08:35;26.20;75.30
47813;DHT22;34221;45.296;9.516;2023-07-09T07:08:50;26.30;75.20
47813;DHT22;34221;45.296;9.516;2023-07-09T07:09:05;26.30;75.00
47813;DHT22;34221;45.296;9.516;2023-07-09T07:09:20;26.30;74.90
47813;DHT22;34221;45.296;9.516;2023-07-09T07:09:35;26.30;74.80
47813;DHT22;34221;45.296;9.516;2023-07-09T07:09:50;26.30;74.90
47813;DHT22;34221;45.296;9.516;2023-07-09T07:10:05;26.30;75.00
47813;DHT22;34221;45.296;9.516;2023-07-09T07:10:20;26.30;75.00
47813;DHT22;34221;45.296;9.516;2023-07-09T07:10:36;26.30;74.90
47813;DHT22;34221;45.296;9.516;2023-07-09T07:11:02;26.40;75.10
47813;DHT22;34221;45.296;9.516;2023-07-09T07:11:18;26.40;74.80
47813;DHT22;34221;45.296;9.516;2023-07-09T07:11:33;26.40;74.50
47813;DHT22;34221;45.296;9.516;2023-07-09T07:11:49;26.40;74.20
47813;DHT22;34221;45.296;9.516;2023-07-09T07:12:05;26.40;73.80
47813;DHT22;34221;45.296;9.516;2023-07-09T07:12:24;26.50;73.70
47813;DHT22;34221;45.296;9.516;2023-07-09T07:12:43;26.50;73.70
47813;DHT22;34221;45.296;9.516;2023-07-09T07:13:00;26.50;73.70
47813;DHT22;34221;45.296;9.516;2023-07-09T07:13:15;26.50;73.00
47813;DHT22;34221;45.296;9.516;2023-07-09T07:13:35;26.50;72.90
47813;DHT22;34221;45.296;9.516;2023-07-09T07:13:51;26.50;72.90
47813;DHT22;34221;45.296;9.516;2023-07-09T07:14:07;26.50;72.80
47813;DHT22;34221;45.296;9.516;2023-07-09T07:14:21;26.50;73.30
47813;DHT22;34221;45.296;9.516;2023-07-09T07:14:36;26.50;73.50
47813;DHT22;34221;45.296;9.516;2023-07-09T07:14:52;26.50;73.40
47813;DHT22;34221;45.296;9.516;2023-07-09T07:15:08;26.50;73.00
47813;DHT22;34221;45.296;9.516;2023-07-09T07:15:23;26.50;72.90
47813;DHT22;34221;45.296;9.516;2023-07-09T07:15:38;26.50;73.10
47813;DHT22;34221;45.296;9.516;2023-07-09T07:15:54;26.50;73.10
47813;DHT22;34221;45.296;9.516;2023-07-09T07:16:10;26.50;72.70
47813;DHT22;34221;45.296;9.516;2023-07-09T07:16:26;26.60;73.00
47813;DHT22;34221;45.296;9.516;2023-07-09T07:16:40;26.60;72.80
47813;DHT22;34221;45.296;9.516;2023-07-09T07:16:56;26.60;73.30
47813;DHT22;34221;45.296;9.516;2023-07-09T07:17:12;26.60;72.80
47813;DHT22;34221;45.296;9.516;2023-07-09T07:17:29;26.60;73.10
47813;DHT22;34221;45.296;9.516;2023-07-09T07:17:44;26.70;73.60
47813;DHT22;34221;45.296;9.516;2023-07-09T07:18:00;26.70;73.60
47813;DHT22;34221;45.296;9.516;2023-07-09T07:18:14;26.70;73.60
47813;DHT22;34221;45.296;9.516;2023-07-09T07:18:29;26.70;73.50
47813;DHT22;34221;45.296;9.516;2023-07-09T07:18:44;26.70;73.10
47813;DHT22;34221;45.296;9.516;2023-07-09T07:19:02;26.80;73.00
47813;DHT22;34221;45.296;9.516;2023-07-09T07:19:17;26.80;72.80
47813;DHT22;34221;45.296;9.516;2023-07-09T07:19:32;26.80;73.70
47813;DHT22;34221;45.296;9.516;2023-07-09T07:19:47;26.80;73.00
47813;DHT22;34221;45.296;9.516;2023-07-09T07:20:02;26.80;72.80
47813;DHT22;34221;45.296;9.516;2023-07-09T07:20:18;26.80;72.80
47813;DHT22;34221;45.296;9.516;2023-07-09T07:20:33;26.80;73.20
47813;DHT22;34221;45.296;9.516;2023-07-09T07:20:49;26.80;72.40
47813;DHT22;34221;45.296;9.516;2023-07-09T07:21:04;26.80;72.30
47813;DHT22;34221;45.296;9.516;2023-07-09T07:21:20;26.80;72.40
47813;DHT22;34221;45.296;9.516;2023-07-09T07:21:35;26.80;72.60
47813;DHT22;34221;45.296;9.516;2023-07-09T07:21:50;26.80;72.40
47813;DHT22;34221;45.296;9.516;2023-07-09T07:22:05;26.90;72.20
47813;DHT22;34221;45.296;9.516;2023-07-09T07:22:21;26.80;72.10
47813;DHT22;34221;45.296;9.516;2023-07-09T07:22:37;26.90;72.30
47813;DHT22;34221;45.296;9.516;2023-07-09T07:22:52;26.90;72.50
47813;DHT22;34221;45.296;9.516;2023-07-09T07:23:07;26.90;72.70
47813;DHT22;34221;45.296;9.516;2023-07-09T07:23:22;26.90;72.90
47813;DHT22;34221;45.296;9.516;2023-07-09T07:23:38;26.90;73.10
47813;DHT22;34221;45.296;9.516;2023-07-09T07:23:53;26.90;73.10
47813;DHT22;34221;45.296;9.516;2023-07-09T07:24:08;26.90;73.10
47813;DHT22;34221;45.296;9.516;2023-07-09T07:24:23;26.90;73.10
47813;DHT22;34221;45.296;9.516;2023-07-09T07:24:38;26.90;73.10
47813;DHT22;34221;45.296;9.516;2023-07-09T07:24:53;26.90;73.10
47813;DHT22;34221;45.296;9.516;2023-07-09T07:25:08;26.90;73.00
47813;DHT22;34221;45.296;9.516;2023-07-09T07:25:24;26.90;72.90
47813;DHT22;34221;45.296;9.516;2023-07-09T07:25:39;26.90;72.70
47813;DHT22;34221;45.296;9.516;2023-07-09T07:25:53;26.90;72.70
47813;DHT22;34221;45.296;9.516;2023-07-09T07:26:09;27.00;72.60
47813;DHT22;34221;45.296;9.516;2023-07-09T07:26:24;27.00;72.70
47813;DHT22;34221;45.296;9.516;2023-07-09T07:26:39;27.00;72.30
47813;DHT22;34221;45.296;9.516;2023-07-09T07:26:54;27.00;72.80
47813;DHT22;34221;45.296;9.516;2023-07-09T07:27:09;27.00;72.10
47813;DHT22;34221;45.296;9.516;2023-07-09T07:27:24;27.00;72.30
47813;DHT22;34221;45.296;9.516;2023-07-09T07:27:39;27.10;72.40
47813;DHT22;34221;45.296;9.516;2023-07-09T07:28:12;27.10;72.20
47813;DHT22;34221;45.296;9.516;2023-07-09T07:28:27;27.10;72.10
47813;DHT22;34221;45.296;9.516;2023-07-09T07:28:42;27.10;72.20
47813;DHT22;34221;45.296;9.516;2023-07-09T07:28:57;27.10;72.10
47813;DHT22;34221;45.296;9.516;2023-07-09T07:29:12;27.10;72.00
47813;DHT22;34221;45.296;9.516;2023-07-09T07:29:27;27.10;72.10
47813;DHT22;34221;45.296;9.516;2023-07-09T07:29:42;27.10;72.00
47813;DHT22;34221;45.296;9.516;2023-07-09T07:29:57;27.20;72.10
47813;DHT22;34221;45.296;9.516;2023-07-09T07:30:12;27.10;72.00
47813;DHT22;34221;45.296;9.516;2023-07-09T07:30:27;27.20;72.10
47813;DHT22;34221;45.296;9.516;2023-07-09T07:30:43;27.20;72.30
47813;DHT22;34221;45.296;9.516;2023-07-09T07:31:02;27.20;72.30
47813;DHT22;34221;45.296;9.516;2023-07-09T07:31:18;27.20;72.20
47813;DHT22;34221;45.296;9.516;2023-07-09T07:31:33;27.20;71.90
47813;DHT22;34221;45.296;9.516;2023-07-09T07:31:48;27.20;71.70
47813;DHT22;34221;45.296;9.516;2023-07-09T07:32:03;27.20;71.80
47813;DHT22;34221;45.296;9.516;2023-07-09T07:32:19;27.20;71.90
47813;DHT22;34221;45.296;9.516;2023-07-09T07:32:36;27.20;71.60
47813;DHT22;34221;45.296;9.516;2023-07-09T07:32:52;27.20;71.60
47813;DHT22;34221;45.296;9.516;2023-07-09T07:33:07;27.20;71.40
47813;DHT22;34221;45.296;9.516;2023-07-09T07:33:21;27.20;71.30
47813;DHT22;34221;45.296;9.516;2023-07-09T07:33:39;27.20;71.10
47813;DHT22;34221;45.296;9.516;2023-07-09T07:33:56;27.20;71.10
47813;DHT22;34221;45.296;9.516;2023-07-09T07:34:10;27.20;71.00
47813;DHT22;34221;45.296;9.516;2023-07-09T07:34:26;27.20;71.10
47813;DHT22;34221;45.296;9.516;2023-07-09T07:34:41;27.30;71.30
47813;DHT22;34221;45.296;9.516;2023-07-09T07:34:56;27.30;71.40
47813;DHT22;34221;45.296;9.516;2023-07-09T07:35:11;27.30;71.50
47813;DHT22;34221;45.296;9.516;2023-07-09T07:35:26;27.40;71.50
47813;DHT22;34221;45.296;9.516;2023-07-09T07:35:41;27.40;71.20
47813;DHT22;34221;45.296;9.516;2023-07-09T07:35:56;27.40;71.50
47813;DHT22;34221;45.296;9.516;2023-07-09T07:36:12;27.40;71.40
47813;DHT22;34221;45.296;9.516;2023-07-09T07:36:27;27.30;71.50
47813;DHT22;34221;45.296;9.516;2023-07-09T07:36:42;27.30;72.50
47813;DHT22;34221;45.296;9.516;2023-07-09T07:36:57;27.40;72.20
47813;DHT22;34221;45.296;9.516;2023-07-09T07:37:12;27.40;72.80
47813;DHT22;34221;45.296;9.516;2023-07-09T07:37:27;27.40;72.90
47813;DHT22;34221;45.296;9.516;2023-07-09T07:37:42;27.40;73.00
47813;DHT22;34221;45.296;9.516;2023-07-09T07:37:57;27.40;72.90
47813;DHT22;34221;45.296;9.516;2023-07-09T07:38:12;27.40;72.80
47813;DHT22;34221;45.296;9.516;2023-07-09T07:38:27;27.40;72.60
47813;DHT22;34221;45.296;9.516;2023-07-09T07:38:42;27.40;72.50
47813;DHT22;34221;45.296;9.516;2023-07-09T07:38:57;27.40;72.40
47813;DHT22;34221;45.296;9.516;2023-07-09T07:39:12;27.40;72.40
47813;DHT22;34221;45.296;9.516;2023-07-09T07:39:27;27.40;72.30
47813;DHT22;34221;45.296;9.516;2023-07-09T07:39:42;27.40;72.00
47813;DHT22;34221;45.296;9.516;2023-07-09T07:39:57;27.50;72.20
47813;DHT22;34221;45.296;9.516;2023-07-09T07:40:12;27.50;72.20
47813;DHT22;34221;45.296;9.516;2023-07-09T07:40:27;27.40;71.90
47813;DHT22;34221;45.296;9.516;2023-07-09T07:40:45;27.40;71.90
47813;DHT22;34221;45.296;9.516;2023-07-09T07:41:01;27.40;71.80
47813;DHT22;34221;45.296;9.516;2023-07-09T07:41:16;27.40;71.90
47813;DHT22;34221;45.296;9.516;2023-07-09T07:41:31;27.50;72.00
47813;DHT22;34221;45.296;9.516;2023-07-09T07:41:46;27.40;71.90
47813;DHT22;34221;45.296;9.516;2023-07-09T07:42:01;27.50;72.00
47813;DHT22;34221;45.296;9.516;2023-07-09T07:42:16;27.50;71.90
47813;DHT22;34221;45.296;9.516;2023-07-09T07:42:32;27.50;72.00
47813;DHT22;34221;45.296;9.516;2023-07-09T07:42:47;27.50;72.20
47813;DHT22;34221;45.296;9.516;2023-07-09T07:43:02;27.50;72.10
47813;DHT22;34221;45.296;9.516;2023-07-09T07:43:17;27.50;72.00
47813;DHT22;34221;45.296;9.516;2023-07-09T07:43:32;27.50;72.00
47813;DHT22;34221;45.296;9.516;2023-07-09T07:43:46;27.50;72.20
47813;DHT22;34221;45.296;9.516;2023-07-09T07:44:01;27.50;72.20
47813;DHT22;34221;45.296;9.516;2023-07-09T07:44:17;27.50;72.10
47813;DHT22;34221;45.296;9.516;2023-07-09T07:44:32;27.50;72.20
47813;DHT22;34221;45.296;9.516;2023-07-09T07:44:47;27.50;72.30
47813;DHT22;34221;45.296;9.516;2023-07-09T07:45:03;27.50;72.20
47813;DHT22;34221;45.296;9.516;2023-07-09T07:45:21;27.50;72.10
47813;DHT22;34221;45.296;9.516;2023-07-09T07:45:39;27.60;72.20
47813;DHT22;34221;45.296;9.516;2023-07-09T07:45:55;27.60;72.30
47813;DHT22;34221;45.296;9.516;2023-07-09T07:46:10;27.60;72.40
47813;DHT22;34221;45.296;9.516;2023-07-09T07:46:25;27.60;72.40
47813;DHT22;34221;45.296;9.516;2023-07-09T07:46:40;27.60;72.50
47813;DHT22;34221;45.296;9.516;2023-07-09T07:46:54;27.60;72.50
47813;DHT22;34221;45.296;9.516;2023-07-09T07:47:09;27.60;72.40
47813;DHT22;34221;45.296;9.516;2023-07-09T07:47:27;27.60;72.40
47813;DHT22;34221;45.296;9.516;2023-07-09T07:47:42;27.60;72.60
47813;DHT22;34221;45.296;9.516;2023-07-09T07:47:58;27.60;72.80
47813;DHT22;34221;45.296;9.516;2023-07-09T07:48:13;27.60;73.00
47813;DHT22;34221;45.296;9.516;2023-07-09T07:48:28;27.60;72.90
47813;DHT22;34221;45.296;9.516;2023-07-09T07:48:43;27.60;73.30
47813;DHT22;34221;45.296;9.516;2023-07-09T07:48:58;27.60;73.00
47813;DHT22;34221;45.296;9.516;2023-07-09T07:49:13;27.60;73.00
47813;DHT22;34221;45.296;9.516;2023-07-09T07:49:28;27.70;73.20
47813;DHT22;34221;45.296;9.516;2023-07-09T07:49:43;27.60;73.20
47813;DHT22;34221;45.296;9.516;2023-07-09T07:49:58;27.60;73.50
47813;DHT22;34221;45.296;9.516;2023-07-09T07:50:13;27.70;73.50
47813;DHT22;34221;45.296;9.516;2023-07-09T07:50:28;27.60;73.30
47813;DHT22;34221;45.296;9.516;2023-07-09T07:50:44;27.60;73.10
47813;DHT22;34221;45.296;9.516;2023-07-09T07:51:01;27.60;73.30
47813;DHT22;34221;45.296;9.516;2023-07-09T07:51:17;27.60;73.40
47813;DHT22;34221;45.296;9.516;2023-07-09T07:51:32;27.60;73.90
47813;DHT22;34221;45.296;9.516;2023-07-09T07:51:48;27.60;73.80
47813;DHT22;34221;45.296;9.516;2023-07-09T07:52:03;27.60;74.10
47813;DHT22;34221;45.296;9.516;2023-07-09T07:52:19;27.60;74.20
47813;DHT22;34221;45.296;9.516;2023-07-09T07:52:34;27.60;74.60
47813;DHT22;34221;45.296;9.516;2023-07-09T07:52:51;27.60;74.60
47813;DHT22;34221;45.296;9.516;2023-07-09T07:53:07;27.70;74.70
47813;DHT22;34221;45.296;9.516;2023-07-09T07:53:25;27.70;74.90
47813;DHT22;34221;45.296;9.516;2023-07-09T07:53:40;27.70;74.60
47813;DHT22;34221;45.296;9.516;2023-07-09T07:53:55;27.70;73.70
47813;DHT22;34221;45.296;9.516;2023-07-09T07:54:10;27.70;73.60
47813;DHT22;34221;45.296;9.516;2023-07-09T07:54:26;27.70;73.60
47813;DHT22;34221;45.296;9.516;2023-07-09T07:54:40;27.70;73.70
47813;DHT22;34221;45.296;9.516;2023-07-09T07:54:56;27.70;73.40
47813;DHT22;34221;45.296;9.516;2023-07-09T07:55:11;27.60;73.20
47813;DHT22;34221;45.296;9.516;2023-07-09T07:55:26;27.60;73.20
47813;DHT22;34221;45.296;9.516;2023-07-09T07:55:42;27.60;73.00
47813;DHT22;34221;45.296;9.516;2023-07-09T07:55:57;27.70;72.70
47813;DHT22;34221;45.296;9.516;2023-07-09T07:56:12;27.70;72.60
47813;DHT22;34221;45.296;9.516;2023-07-09T07:56:27;27.70;72.70
47813;DHT22;34221;45.296;9.516;2023-07-09T07:56:42;27.70;72.40
47813;DHT22;34221;45.296;9.516;2023-07-09T07:56:58;27.70;72.10
47813;DHT22;34221;45.296;9.516;2023-07-09T07:57:13;27.70;72.20
47813;DHT22;34221;45.296;9.516;2023-07-09T07:57:28;27.60;72.60
47813;DHT22;34221;45.296;9.516;2023-07-09T07:57:43;27.60;72.70
47813;DHT22;34221;45.296;9.516;2023-07-09T07:57:58;27.60;72.60
47813;DHT22;34221;45.296;9.516;2023-07-09T07:58:13;27.60;73.00
47813;DHT22;34221;45.296;9.516;2023-07-09T07:58:28;27.60;73.60
47813;DHT22;34221;45.296;9.516;2023-07-09T07:58:43;27.60;73.70
47813;DHT22;34221;45.296;9.516;2023-07-09T07:58:59;27.60;73.90
47813;DHT22;34221;45.296;9.516;2023-07-09T07:59:13;27.60;73.40
47813;DHT22;34221;45.296;9.516;2023-07-09T07:59:29;27.60;72.90
47813;DHT22;34221;45.296;9.516;2023-07-09T07:59:44;27.60;72.60
47813;DHT22;34221;45.296;9.516;2023-07-09T08:00:01;27.60;72.50
47813;DHT22;34221;45.296;9.516;2023-07-09T08:00:27;27.60;72.50
47813;DHT22;34221;45.296;9.516;2023-07-09T08:00:41;27.70;72.60
47813;DHT22;34221;45.296;9.516;2023-07-09T08:00:57;27.70;72.70
47813;DHT22;34221;45.296;9.516;2023-07-09T08:01:12;27.60;72.60
47813;DHT22;34221;45.296;9.516;2023-07-09T08:01:27;27.70;72.70
47813;DHT22;34221;45.296;9.516;2023-07-09T08:01:42;27.60;72.70
47813;DHT22;34221;45.296;9.516;2023-07-09T08:01:57;27.70;72.90
47813;DHT22;34221;45.296;9.516;2023-07-09T08:02:13;27.70;72.90
47813;DHT22;34221;45.296;9.516;2023-07-09T08:02:29;27.70;72.90
47813;DHT22;34221;45.296;9.516;2023-07-09T08:02:44;27.70;72.90
47813;DHT22;34221;45.296;9.516;2023-07-09T08:02:59;27.70;72.90
47813;DHT22;34221;45.296;9.516;2023-07-09T08:03:14;27.80;73.30
47813;DHT22;34221;45.296;9.516;2023-07-09T08:03:29;27.80;73.30
47813;DHT22;34221;45.296;9.516;2023-07-09T08:03:44;27.80;73.00
47813;DHT22;34221;45.296;9.516;2023-07-09T08:03:59;27.80;73.00
47813;DHT22;34221;45.296;9.516;2023-07-09T08:04:14;27.80;72.90
47813;DHT22;34221;45.296;9.516;2023-07-09T08:04:29;27.80;72.40
47813;DHT22;34221;45.296;9.516;2023-07-09T08:05:05;27.80;72.10
47813;DHT22;34221;45.296;9.516;2023-07-09T08:05:20;27.90;71.50
47813;DHT22;34221;45.296;9.516;2023-07-09T08:05:35;27.90;71.70
47813;DHT22;34221;45.296;9.516;2023-07-09T08:05:51;27.90;72.10
47813;DHT22;34221;45.296;9.516;2023-07-09T08:06:06;27.90;72.40
47813;DHT22;34221;45.296;9.516;2023-07-09T08:06:21;27.80;72.60
47813;DHT22;34221;45.296;9.516;2023-07-09T08:06:36;27.90;72.90
47813;DHT22;34221;45.296;9.516;2023-07-09T08:07:10;27.90;73.00
47813;DHT22;34221;45.296;9.516;2023-07-09T08:07:25;27.90;72.70
47813;DHT22;34221;45.296;9.516;2023-07-09T08:07:40;27.90;72.60
47813;DHT22;34221;45.296;9.516;2023-07-09T08:07:55;27.90;72.30
47813;DHT22;34221;45.296;9.516;2023-07-09T08:08:10;27.90;72.40
47813;DHT22;34221;45.296;9.516;2023-07-09T08:08:26;28.00;72.60
47813;DHT22;34221;45.296;9.516;2023-07-09T08:08:41;28.00;72.70
47813;DHT22;34221;45.296;9.516;2023-07-09T08:08:55;28.00;72.70
47813;DHT22;34221;45.296;9.516;2023-07-09T08:09:10;28.00;72.30
47813;DHT22;34221;45.296;9.516;2023-07-09T08:09:25;28.00;72.20
47813;DHT22;34221;45.296;9.516;2023-07-09T08:09:40;28.00;72.10
47813;DHT22;34221;45.296;9.516;2023-07-09T08:09:55;28.00;71.90
47813;DHT22;34221;45.296;9.516;2023-07-09T08:10:13;28.00;71.90
47813;DHT22;34221;45.296;9.516;2023-07-09T08:10:30;28.00;72.10
47813;DHT22;34221;45.296;9.516;2023-07-09T08:10:45;28.00;72.10
47813;DHT22;34221;45.296;9.516;2023-07-09T08:11:02;28.00;71.90
47813;DHT22;34221;45.296;9.516;2023-07-09T08:11:19;28.10;72.20
47813;DHT22;34221;45.296;9.516;2023-07-09T08:11:34;28.00;72.10
47813;DHT22;34221;45.296;9.516;2023-07-09T08:11:50;28.00;72.00
47813;DHT22;34221;45.296;9.516;2023-07-09T08:12:05;28.00;72.00
47813;DHT22;34221;45.296;9.516;2023-07-09T08:12:26;28.00;72.30
47813;DHT22;34221;45.296;9.516;2023-07-09T08:12:41;27.90;72.60
47813;DHT22;34221;45.296;9.516;2023-07-09T08:12:56;27.90;72.90
47813;DHT22;34221;45.296;9.516;2023-07-09T08:13:11;27.90;73.10
47813;DHT22;34221;45.296;9.516;2023-07-09T08:13:28;28.00;73.00
47813;DHT22;34221;45.296;9.516;2023-07-09T08:13:42;28.00;72.90
47813;DHT22;34221;45.296;9.516;2023-07-09T08:13:58;28.00;72.30
47813;DHT22;34221;45.296;9.516;2023-07-09T08:14:13;28.00;71.80
47813;DHT22;34221;45.296;9.516;2023-07-09T08:14:27;28.00;71.40
47813;DHT22;34221;45.296;9.516;2023-07-09T08:14:44;28.00;70.90
47813;DHT22;34221;45.296;9.516;2023-07-09T08:15:00;28.00;70.60
47813;DHT22;34221;45.296;9.516;2023-07-09T08:15:15;28.00;71.00
47813;DHT22;34221;45.296;9.516;2023-07-09T08:15:32;28.00;71.30
47813;DHT22;34221;45.296;9.516;2023-07-09T08:15:47;28.00;71.50
47813;DHT22;34221;45.296;9.516;2023-07-09T08:16:02;28.00;71.40
47813;DHT22;34221;45.296;9.516;2023-07-09T08:16:17;28.10;71.90
47813;DHT22;34221;45.296;9.516;2023-07-09T08:16:32;28.10;71.10
47813;DHT22;34221;45.296;9.516;2023-07-09T08:16:48;28.10;71.10
47813;DHT22;34221;45.296;9.516;2023-07-09T08:17:03;28.10;70.80
47813;DHT22;34221;45.296;9.516;2023-07-09T08:17:18;28.10;70.90
47813;DHT22;34221;45.296;9.516;2023-07-09T08:17:33;28.20;71.00
47813;DHT22;34221;45.296;9.516;2023-07-09T08:17:48;28.20;71.10
47813;DHT22;34221;45.296;9.516;2023-07-09T08:18:03;28.20;71.20
47813;DHT22;34221;45.296;9.516;2023-07-09T08:18:18;28.20;71.20
47813;DHT22;34221;45.296;9.516;2023-07-09T08:18:33;28.20;71.10
47813;DHT22;34221;45.296;9.516;2023-07-09T08:18:48;28.20;71.10
47813;DHT22;34221;45.296;9.516;2023-07-09T08:19:03;28.20;71.20
47813;DHT22;34221;45.296;9.516;2023-07-09T08:19:19;28.20;71.00
47813;DHT22;34221;45.296;9.516;2023-07-09T08:19:45;28.10;70.30
47813;DHT22;34221;45.296;9.516;2023-07-09T08:20:01;28.10;71.00
47813;DHT22;34221;45.296;9.516;2023-07-09T08:20:16;28.20;71.50
47813;DHT22;34221;45.296;9.516;2023-07-09T08:20:31;28.10;71.40
47813;DHT22;34221;45.296;9.516;2023-07-09T08:20:47;28.10;71.00
47813;DHT22;34221;45.296;9.516;2023-07-09T08:21:02;28.20;71.10
47813;DHT22;34221;45.296;9.516;2023-07-09T08:21:18;28.20;70.70
47813;DHT22;34221;45.296;9.516;2023-07-09T08:21:33;28.10;70.00
47813;DHT22;34221;45.296;9.516;2023-07-09T08:21:48;28.20;70.30
47813;DHT22;34221;45.296;9.516;2023-07-09T08:22:03;28.10;70.40
47813;DHT22;34221;45.296;9.516;2023-07-09T08:22:19;28.10;70.20
47813;DHT22;34221;45.296;9.516;2023-07-09T08:22:35;28.20;70.00
47813;DHT22;34221;45.296;9.516;2023-07-09T08:22:50;28.20;70.10
47813;DHT22;34221;45.296;9.516;2023-07-09T08:23:05;28.20;70.00
47813;DHT22;34221;45.296;9.516;2023-07-09T08:23:21;28.20;70.00
47813;DHT22;34221;45.296;9.516;2023-07-09T08:23:36;28.20;70.20
47813;DHT22;34221;45.296;9.516;2023-07-09T08:23:51;28.20;69.80
47813;DHT22;34221;45.296;9.516;2023-07-09T08:24:06;28.20;69.40
47813;DHT22;34221;45.296;9.516;2023-07-09T08:24:21;28.20;69.40
47813;DHT22;34221;45.296;9.516;2023-07-09T08:24:36;28.20;69.70
47813;DHT22;34221;45.296;9.516;2023-07-09T08:24:51;28.20;69.70
47813;DHT22;34221;45.296;9.516;2023-07-09T08:25:07;28.20;69.50
47813;DHT22;34221;45.296;9.516;2023-07-09T08:25:22;28.20;69.70
47813;DHT22;34221;45.296;9.516;2023-07-09T08:25:37;28.30;69.80
47813;DHT22;34221;45.296;9.516;2023-07-09T08:25:53;28.30;69.60
47813;DHT22;34221;45.296;9.516;2023-07-09T08:26:08;28.30;69.60
47813;DHT22;34221;45.296;9.516;2023-07-09T08:26:23;28.30;69.60
47813;DHT22;34221;45.296;9.516;2023-07-09T08:26:38;28.40;70.00
47813;DHT22;34221;45.296;9.516;2023-07-09T08:26:53;28.40;69.80
47813;DHT22;34221;45.296;9.516;2023-07-09T08:27:09;28.40;69.60
47813;DHT22;34221;45.296;9.516;2023-07-09T08:27:24;28.40;69.10
47813;DHT22;34221;45.296;9.516;2023-07-09T08:27:39;28.40;69.00
47813;DHT22;34221;45.296;9.516;2023-07-09T08:27:54;28.40;69.00
47813;DHT22;34221;45.296;9.516;2023-07-09T08:28:09;28.40;69.00
47813;DHT22;34221;45.296;9.516;2023-07-09T08:28:24;28.40;68.50
47813;DHT22;34221;45.296;9.516;2023-07-09T08:28:40;28.40;67.60
47813;DHT22;34221;45.296;9.516;2023-07-09T08:28:54;28.40;67.80
47813;DHT22;34221;45.296;9.516;2023-07-09T08:29:09;28.40;68.00
47813;DHT22;34221;45.296;9.516;2023-07-09T08:29:24;28.40;68.80
47813;DHT22;34221;45.296;9.516;2023-07-09T08:29:39;28.40;68.10
47813;DHT22;34221;45.296;9.516;2023-07-09T08:29:56;28.40;68.30
47813;DHT22;34221;45.296;9.516;2023-07-09T08:30:11;28.40;68.10
47813;DHT22;34221;45.296;9.516;2023-07-09T08:30:26;28.40;68.20
47813;DHT22;34221;45.296;9.516;2023-07-09T08:30:41;28.40;68.50
47813;DHT22;34221;45.296;9.516;2023-07-09T08:30:56;28.50;68.60
47813;DHT22;34221;45.296;9.516;2023-07-09T08:31:11;28.40;68.90
47813;DHT22;34221;45.296;9.516;2023-07-09T08:31:26;28.50;68.90
47813;DHT22;34221;45.296;9.516;2023-07-09T08:31:41;28.40;68.10
47813;DHT22;34221;45.296;9.516;2023-07-09T08:31:56;28.50;67.10
47813;DHT22;34221;45.296;9.516;2023-07-09T08:32:12;28.40;67.20
47813;DHT22;34221;45.296;9.516;2023-07-09T08:32:27;28.50;67.50
47813;DHT22;34221;45.296;9.516;2023-07-09T08:32:43;28.50;67.90
47813;DHT22;34221;45.296;9.516;2023-07-09T08:32:58;28.50;68.10
47813;DHT22;34221;45.296;9.516;2023-07-09T08:33:13;28.50;68.20
47813;DHT22;34221;45.296;9.516;2023-07-09T08:33:29;28.50;68.30
47813;DHT22;34221;45.296;9.516;2023-07-09T08:33:44;28.50;69.20